Darstellungsparameter: Aktuell verwendete Einstellungen:
Skalierung der Graphiken ... ?
xyx+y,   Skalierungsfaktor:      Skalierung: Modus: x, Faktor: 1
Darstellungszeitraum ... ?
Vom - - bis: - -   Zeitraum: 16.11.2020 - 18.11.2020
Min/Max/Avg-Anzeige ... ?
Zeige MMA aktuell
Zeige MMA Monat
Zeige MMA alles
Zeige --A aktuell
Zeige --A Monat
Zeige --A alles
Keine MMA-Anzeige
MMA:
Average (ber die Originaldaten)
MMA-Basis: 16.11.2020 - 18.11.2020
Quicknavigation für Darstellung... ?
Tage:      1T, 2T, 3T, 5T -1T -2T -3T -5T +1T +2T +3T +5T
Wochen: 1W, 2W, 3W -1W -2W -3W +1W +2W +3W
Monate: 1M, 3M, 6M -1M -3M -6M +1M +3M +6M
Jahre:    1J, 3J, 5J, 10J -1J -3J -5J -10J +1J +3J +5J +10J
Nutze für die Darstellung ... ?
Originaldaten oder Mittelwerte auf ...
Stundenbasis Tagesbasis Wochenbasis
Monatsbasis Jahresbasis      Datenbasis: Original-Daten
Darstellen als:
Statistik (Auto) Statistik J:M      Darstellung:
Zur Graphik,    zurück zur Übersicht aller Sensoren.
 
Tabellarische Datenbersicht: ?
 
Sensor: Nr:Datum:Temp:Abs-Feuchte:Windchill:Wind:
Aussen-T/F 1 16-11-2020 00:00:00 11.1 C 8.96 g/m*3 11.1 C 0 km/h
2 16-11-2020 00:05:00 10.9 C 8.85 g/m*3 10.04 C 8.1 km/h
3 16-11-2020 00:10:00 10.8 C 8.8 g/m*3 10.8 C 3.2 km/h
4 16-11-2020 00:15:00 10.7 C 8.74 g/m*3 10.7 C 4.8 km/h
5 16-11-2020 00:20:00 10.7 C 8.74 g/m*3 10.7 C 4.8 km/h
6 16-11-2020 00:25:00 10.6 C 8.78 g/m*3 10.6 C 3.2 km/h
7 16-11-2020 00:30:00 10.7 C 8.84 g/m*3 10.7 C 1.6 km/h
8 16-11-2020 00:35:00 10.7 C 8.84 g/m*3 10.18 C 6.4 km/h
9 16-11-2020 00:40:00 10.7 C 8.84 g/m*3 10.18 C 6.4 km/h
10 16-11-2020 00:45:00 10.7 C 8.74 g/m*3 9.52 C 9.7 km/h
11 16-11-2020 00:50:00 10.7 C 8.64 g/m*3 9.26 C 11.3 km/h
12 16-11-2020 00:55:00 10.8 C 8.5 g/m*3 10.29 C 6.4 km/h
13 16-11-2020 01:00:00 10.9 C 8.55 g/m*3 9.76 C 9.7 km/h
14 16-11-2020 01:05:00 10.9 C 8.45 g/m*3 10.9 C 4.8 km/h
15 16-11-2020 01:10:00 11 C 8.41 g/m*3 9.02 C 16.1 km/h
16 16-11-2020 01:15:00 11.1 C 8.36 g/m*3 11.1 C 17.7 km/h
17 16-11-2020 01:20:00 11.1 C 8.36 g/m*3 11.1 C 17.7 km/h
18 16-11-2020 01:25:00 11 C 8.21 g/m*3 9.88 C 9.7 km/h
19 16-11-2020 01:30:00 10.8 C 8.3 g/m*3 10.8 C 3.2 km/h
20 16-11-2020 01:35:00 10.7 C 8.15 g/m*3 9.81 C 8.1 km/h
21 16-11-2020 01:40:00 10.6 C 8.2 g/m*3 10.6 C 4.8 km/h
22 16-11-2020 01:45:00 10.5 C 8.15 g/m*3 10.5 C 3.2 km/h
23 16-11-2020 01:50:00 10.4 C 8.19 g/m*3 9.46 C 8.1 km/h
24 16-11-2020 01:55:00 10.4 C 8.19 g/m*3 9.83 C 6.4 km/h
25 16-11-2020 02:00:00 10.3 C 8.04 g/m*3 10.3 C 3.2 km/h
Sensor: Nr:Datum:Temp:Abs-Feuchte:Windchill:Wind:
Aussen-T/F 26 16-11-2020 02:05:00 10.3 C 8.14 g/m*3 9.04 C 9.7 km/h
27 16-11-2020 02:10:00 10.3 C 7.95 g/m*3 9.34 C 8.1 km/h
28 16-11-2020 02:15:00 10.4 C 8 g/m*3 8.9 C 11.3 km/h
29 16-11-2020 02:20:00 10.6 C 8.1 g/m*3 9.69 C 8.1 km/h
30 16-11-2020 02:25:00 10.6 C 8.1 g/m*3 10.06 C 6.4 km/h
31 16-11-2020 02:30:00 10.7 C 8.15 g/m*3 10.7 C 3.2 km/h
32 16-11-2020 02:35:00 10.7 C 8.25 g/m*3 10.7 C 1.6 km/h
33 16-11-2020 02:40:00 10.6 C 8.2 g/m*3 9.69 C 8.1 km/h
34 16-11-2020 02:45:00 10.6 C 8.2 g/m*3 9.4 C 9.7 km/h
35 16-11-2020 02:50:00 10.6 C 8.1 g/m*3 9.14 C 11.3 km/h
36 16-11-2020 02:55:00 10.7 C 8.15 g/m*3 10.18 C 6.4 km/h
37 16-11-2020 03:00:00 10.7 C 8.15 g/m*3 10.18 C 6.4 km/h
38 16-11-2020 03:05:00 10.7 C 8.15 g/m*3 10.7 C 4.8 km/h
39 16-11-2020 03:10:00 10.7 C 8.15 g/m*3 10.18 C 6.4 km/h
40 16-11-2020 03:15:00 10.7 C 8.05 g/m*3 9.04 C 12.9 km/h
41 16-11-2020 03:20:00 10.8 C 8.2 g/m*3 10.8 C 0 km/h
42 16-11-2020 03:25:00 10.8 C 8.2 g/m*3 10.29 C 6.4 km/h
43 16-11-2020 03:30:00 10.7 C 8.05 g/m*3 9.26 C 11.3 km/h
44 16-11-2020 03:35:00 10.8 C 8.11 g/m*3 8.61 C 17.7 km/h
45 16-11-2020 03:40:00 10.9 C 8.06 g/m*3 9.51 C 11.3 km/h
46 16-11-2020 03:45:00 11 C 8.21 g/m*3 10.16 C 8.1 km/h
47 16-11-2020 03:50:00 11 C 8.11 g/m*3 9.88 C 9.7 km/h
48 16-11-2020 03:55:00 11 C 8.11 g/m*3 9.63 C 11.3 km/h
49 16-11-2020 04:00:00 11.1 C 8.16 g/m*3 11.1 C 9.7 km/h
50 16-11-2020 04:05:00 11 C 8.11 g/m*3 9.63 C 11.3 km/h
Sensor: Nr:Datum:Temp:Abs-Feuchte:Windchill:Wind:
Aussen-T/F 51 16-11-2020 04:10:00 11 C 8.11 g/m*3 9.88 C 9.7 km/h
52 16-11-2020 04:15:00 11 C 8.11 g/m*3 8.56 C 20.9 km/h
53 16-11-2020 04:20:00 11.1 C 8.16 g/m*3 11.1 C 11.3 km/h
54 16-11-2020 04:25:00 11.1 C 8.16 g/m*3 11.1 C 17.7 km/h
55 16-11-2020 04:30:00 11.1 C 8.26 g/m*3 11.1 C 11.3 km/h
56 16-11-2020 04:35:00 10.9 C 8.36 g/m*3 9.76 C 9.7 km/h
57 16-11-2020 04:40:00 10.7 C 8.35 g/m*3 9.04 C 12.9 km/h
58 16-11-2020 04:45:00 10.5 C 8.34 g/m*3 9.95 C 6.4 km/h
59 16-11-2020 04:50:00 10.4 C 8.38 g/m*3 8.9 C 11.3 km/h
60 16-11-2020 04:55:00 10.3 C 8.33 g/m*3 8.16 C 16.1 km/h
61 16-11-2020 05:00:00 10.2 C 8.37 g/m*3 8.92 C 9.7 km/h
62 16-11-2020 05:05:00 10.2 C 8.28 g/m*3 7.7 C 19.3 km/h
63 16-11-2020 05:10:00 10.2 C 8.28 g/m*3 8.22 C 14.5 km/h
64 16-11-2020 05:15:00 10.1 C 8.23 g/m*3 7.91 C 16.1 km/h
65 16-11-2020 05:20:00 10.2 C 8.28 g/m*3 8.22 C 14.5 km/h
66 16-11-2020 05:25:00 10.1 C 8.23 g/m*3 8.8 C 9.7 km/h
67 16-11-2020 05:30:00 10.1 C 8.13 g/m*3 7.91 C 16.1 km/h
68 16-11-2020 05:35:00 10.1 C 8.13 g/m*3 8.31 C 12.9 km/h
69 16-11-2020 05:40:00 10.1 C 8.13 g/m*3 8.1 C 14.5 km/h
70 16-11-2020 05:45:00 10.1 C 8.13 g/m*3 7.91 C 16.1 km/h
71 16-11-2020 05:50:00 10.1 C 8.13 g/m*3 8.1 C 14.5 km/h
72 16-11-2020 05:55:00 10 C 7.99 g/m*3 8.68 C 9.7 km/h
73 16-11-2020 06:00:00 10 C 8.08 g/m*3 8.42 C 11.3 km/h
74 16-11-2020 06:05:00 10 C 8.08 g/m*3 9.37 C 6.4 km/h
75 16-11-2020 06:10:00 9.9 C 8.03 g/m*3 9.25 C 6.4 km/h
Sensor: Nr:Datum:Temp:Abs-Feuchte:Windchill:Wind:
Aussen-T/F 76 16-11-2020 06:15:00 9.9 C 8.03 g/m*3 8.3 C 11.3 km/h
77 16-11-2020 06:20:00 9.9 C 8.03 g/m*3 8.87 C 8.1 km/h
78 16-11-2020 06:25:00 10 C 8.08 g/m*3 7.98 C 14.5 km/h
79 16-11-2020 06:30:00 10.1 C 8.04 g/m*3 8.8 C 9.7 km/h
80 16-11-2020 06:35:00 10.1 C 8.13 g/m*3 9.1 C 8.1 km/h
81 16-11-2020 06:40:00 10.1 C 8.13 g/m*3 8.54 C 11.3 km/h
82 16-11-2020 06:45:00 10.1 C 8.13 g/m*3 9.1 C 8.1 km/h
83 16-11-2020 06:50:00 10.1 C 8.13 g/m*3 8.8 C 9.7 km/h
84 16-11-2020 06:55:00 10.1 C 8.13 g/m*3 8.8 C 9.7 km/h
85 16-11-2020 07:00:00 10.1 C 8.13 g/m*3 8.1 C 14.5 km/h
86 16-11-2020 07:05:00 10.1 C 8.13 g/m*3 8.31 C 12.9 km/h
87 16-11-2020 07:10:00 10.1 C 8.13 g/m*3 9.1 C 8.1 km/h
88 16-11-2020 07:15:00 9.9 C 8.03 g/m*3 8.06 C 12.9 km/h
89 16-11-2020 07:20:00 9.9 C 8.03 g/m*3 8.87 C 8.1 km/h
90 16-11-2020 07:25:00 9.8 C 7.98 g/m*3 9.14 C 6.4 km/h
91 16-11-2020 07:30:00 9.7 C 8.02 g/m*3 8.33 C 9.7 km/h
92 16-11-2020 07:35:00 9.6 C 7.97 g/m*3 7.94 C 11.3 km/h
93 16-11-2020 07:40:00 9.6 C 8.06 g/m*3 8.21 C 9.7 km/h
94 16-11-2020 07:45:00 9.6 C 8.06 g/m*3 8.21 C 9.7 km/h
95 16-11-2020 07:50:00 9.5 C 8.01 g/m*3 8.79 C 6.4 km/h
96 16-11-2020 07:55:00 9.6 C 8.15 g/m*3 8.21 C 9.7 km/h
97 16-11-2020 08:00:00 9.7 C 8.2 g/m*3 9.02 C 6.4 km/h
98 16-11-2020 08:05:00 9.8 C 8.16 g/m*3 8.45 C 9.7 km/h
99 16-11-2020 08:10:00 9.8 C 8.16 g/m*3 8.45 C 9.7 km/h
100 16-11-2020 08:15:00 9.9 C 8.22 g/m*3 9.25 C 6.4 km/h
Sensor: Nr:Datum:Temp:Abs-Feuchte:Windchill:Wind:
Aussen-T/F 101 16-11-2020 08:20:00 10 C 8.27 g/m*3 8.99 C 8.1 km/h
102 16-11-2020 08:25:00 10.1 C 8.32 g/m*3 7.91 C 16.1 km/h
103 16-11-2020 08:30:00 10.3 C 8.43 g/m*3 8.78 C 11.3 km/h
104 16-11-2020 08:35:00 10.3 C 8.43 g/m*3 8.34 C 14.5 km/h
105 16-11-2020 08:40:00 10.4 C 8.38 g/m*3 8.47 C 14.5 km/h
106 16-11-2020 08:45:00 10.5 C 8.44 g/m*3 9.57 C 8.1 km/h
107 16-11-2020 08:50:00 10.5 C 8.44 g/m*3 8.8 C 12.9 km/h
108 16-11-2020 08:55:00 10.6 C 8.49 g/m*3 8.71 C 14.5 km/h
109 16-11-2020 09:00:00 10.7 C 8.45 g/m*3 8.84 C 14.5 km/h
110 16-11-2020 09:05:00 10.7 C 8.45 g/m*3 9.26 C 11.3 km/h
111 16-11-2020 09:10:00 10.7 C 8.45 g/m*3 9.04 C 12.9 km/h
112 16-11-2020 09:15:00 10.6 C 8.39 g/m*3 9.14 C 11.3 km/h
113 16-11-2020 09:20:00 10.6 C 8.39 g/m*3 9.4 C 9.7 km/h
114 16-11-2020 09:25:00 10.6 C 8.39 g/m*3 9.4 C 9.7 km/h
115 16-11-2020 09:30:00 10.5 C 8.34 g/m*3 9.57 C 8.1 km/h
116 16-11-2020 09:35:00 10.5 C 8.34 g/m*3 9.02 C 11.3 km/h
117 16-11-2020 09:40:00 10.6 C 8.49 g/m*3 9.4 C 9.7 km/h
118 16-11-2020 09:45:00 10.6 C 8.39 g/m*3 9.4 C 9.7 km/h
119 16-11-2020 09:50:00 10.6 C 8.39 g/m*3 9.14 C 11.3 km/h
120 16-11-2020 09:55:00 10.6 C 8.39 g/m*3 9.14 C 11.3 km/h
121 16-11-2020 10:00:00 10.5 C 8.34 g/m*3 8.8 C 12.9 km/h
122 16-11-2020 10:05:00 10.5 C 8.34 g/m*3 9.02 C 11.3 km/h
123 16-11-2020 10:10:00 10.5 C 8.24 g/m*3 8.8 C 12.9 km/h
124 16-11-2020 10:15:00 10.6 C 8.3 g/m*3 8.2 C 19.3 km/h
125 16-11-2020 10:20:00 10.7 C 8.35 g/m*3 9.04 C 12.9 km/h
Sensor: Nr:Datum:Temp:Abs-Feuchte:Windchill:Wind:
Aussen-T/F 126 16-11-2020 10:25:00 10.7 C 8.35 g/m*3 8.65 C 16.1 km/h
127 16-11-2020 10:30:00 10.8 C 8.4 g/m*3 9.64 C 9.7 km/h
128 16-11-2020 10:35:00 10.8 C 8.4 g/m*3 8.78 C 16.1 km/h
129 16-11-2020 10:40:00 10.9 C 8.36 g/m*3 8.73 C 17.7 km/h
130 16-11-2020 10:45:00 10.9 C 8.36 g/m*3 8.9 C 16.1 km/h
131 16-11-2020 10:50:00 11.2 C 8.41 g/m*3 11.2 C 14.5 km/h
132 16-11-2020 10:55:00 11.3 C 8.47 g/m*3 11.3 C 14.5 km/h
133 16-11-2020 11:00:00 11.5 C 8.57 g/m*3 11.5 C 14.5 km/h
134 16-11-2020 11:05:00 11.6 C 8.63 g/m*3 11.6 C 17.7 km/h
135 16-11-2020 11:10:00 11.6 C 8.52 g/m*3 11.6 C 16.1 km/h
136 16-11-2020 11:15:00 11.7 C 8.68 g/m*3 11.7 C 8.1 km/h
137 16-11-2020 11:20:00 11.8 C 8.63 g/m*3 11.8 C 14.5 km/h
138 16-11-2020 11:25:00 11.8 C 8.63 g/m*3 11.8 C 19.3 km/h
139 16-11-2020 11:30:00 11.9 C 8.68 g/m*3 11.9 C 14.5 km/h
140 16-11-2020 11:35:00 11.9 C 8.68 g/m*3 11.9 C 16.1 km/h
141 16-11-2020 11:40:00 11.9 C 8.58 g/m*3 11.9 C 11.3 km/h
142 16-11-2020 11:45:00 11.9 C 8.58 g/m*3 11.9 C 11.3 km/h
143 16-11-2020 11:50:00 11.9 C 8.58 g/m*3 11.9 C 14.5 km/h
144 16-11-2020 11:55:00 11.9 C 8.68 g/m*3 11.9 C 12.9 km/h
145 16-11-2020 12:00:00 12.1 C 8.79 g/m*3 12.1 C 14.5 km/h
146 16-11-2020 12:05:00 12.1 C 8.79 g/m*3 12.1 C 14.5 km/h
147 16-11-2020 12:10:00 12.2 C 8.85 g/m*3 12.2 C 11.3 km/h
148 16-11-2020 12:15:00 12.1 C 8.9 g/m*3 12.1 C 22.5 km/h
149 16-11-2020 12:20:00 12 C 8.95 g/m*3 12 C 14.5 km/h
150 16-11-2020 12:25:00 12.1 C 9.12 g/m*3 12.1 C 11.3 km/h
Sensor: Nr:Datum:Temp:Abs-Feuchte:Windchill:Wind:
Aussen-T/F 151 16-11-2020 12:30:00 12.1 C 9.01 g/m*3 12.1 C 16.1 km/h
152 16-11-2020 12:35:00 12.3 C 9.12 g/m*3 12.3 C 12.9 km/h
153 16-11-2020 12:40:00 12.4 C 9.18 g/m*3 12.4 C 14.5 km/h
154 16-11-2020 12:45:00 12.5 C 9.13 g/m*3 12.5 C 19.3 km/h
155 16-11-2020 12:50:00 12.5 C 9.13 g/m*3 12.5 C 16.1 km/h
156 16-11-2020 12:55:00 12.6 C 9.18 g/m*3 12.6 C 16.1 km/h
157 16-11-2020 13:00:00 12.7 C 9.24 g/m*3 12.7 C 17.7 km/h
158 16-11-2020 13:05:00 12.7 C 9.24 g/m*3 12.7 C 11.3 km/h
159 16-11-2020 13:10:00 12.7 C 9.35 g/m*3 12.7 C 12.9 km/h
160 16-11-2020 13:15:00 12.7 C 9.24 g/m*3 12.7 C 19.3 km/h
161 16-11-2020 13:20:00 12.6 C 9.29 g/m*3 12.6 C 24.1 km/h
162 16-11-2020 13:25:00 12.5 C 9.35 g/m*3 12.5 C 17.7 km/h
163 16-11-2020 13:30:00 12.4 C 9.18 g/m*3 12.4 C 16.1 km/h
164 16-11-2020 13:35:00 12.4 C 9.29 g/m*3 12.4 C 22.5 km/h
165 16-11-2020 13:40:00 12.4 C 9.29 g/m*3 12.4 C 22.5 km/h
166 16-11-2020 13:45:00 12.4 C 9.29 g/m*3 12.4 C 14.5 km/h
167 16-11-2020 13:50:00 12.4 C 9.29 g/m*3 12.4 C 16.1 km/h
168 16-11-2020 13:55:00 12.4 C 9.29 g/m*3 12.4 C 16.1 km/h
169 16-11-2020 14:00:00 12.4 C 9.29 g/m*3 12.4 C 17.7 km/h
170 16-11-2020 14:05:00 12.4 C 9.18 g/m*3 12.4 C 12.9 km/h
171 16-11-2020 14:10:00 12.4 C 9.18 g/m*3 12.4 C 11.3 km/h
172 16-11-2020 14:15:00 12.4 C 9.18 g/m*3 12.4 C 16.1 km/h
173 16-11-2020 14:20:00 12.4 C 9.29 g/m*3 12.4 C 11.3 km/h
174 16-11-2020 14:25:00 12.4 C 9.29 g/m*3 12.4 C 12.9 km/h
175 16-11-2020 14:30:00 12.4 C 9.18 g/m*3 12.4 C 11.3 km/h
Sensor: Nr:Datum:Temp:Abs-Feuchte:Windchill:Wind:
Aussen-T/F 176 16-11-2020 14:35:00 12.4 C 9.18 g/m*3 12.4 C 16.1 km/h
177 16-11-2020 14:40:00 12.4 C 9.18 g/m*3 12.4 C 12.9 km/h
178 16-11-2020 14:45:00 12.4 C 9.18 g/m*3 12.4 C 16.1 km/h
179 16-11-2020 14:50:00 12.4 C 9.18 g/m*3 12.4 C 12.9 km/h
180 16-11-2020 14:55:00 12.4 C 9.29 g/m*3 12.4 C 9.7 km/h
181 16-11-2020 15:00:00 12.4 C 9.29 g/m*3 12.4 C 9.7 km/h
182 16-11-2020 15:05:00 12.4 C 9.18 g/m*3 12.4 C 12.9 km/h
183 16-11-2020 15:10:00 12.4 C 9.29 g/m*3 12.4 C 11.3 km/h
184 16-11-2020 15:15:00 12.4 C 9.29 g/m*3 12.4 C 17.7 km/h
185 16-11-2020 15:20:00 12.4 C 9.29 g/m*3 12.4 C 14.5 km/h
186 16-11-2020 15:25:00 12.4 C 9.18 g/m*3 12.4 C 17.7 km/h
187 16-11-2020 15:30:00 12.3 C 9.12 g/m*3 12.3 C 19.3 km/h
188 16-11-2020 15:35:00 12.3 C 9.23 g/m*3 12.3 C 17.7 km/h
189 16-11-2020 15:40:00 12.2 C 9.17 g/m*3 12.2 C 11.3 km/h
190 16-11-2020 15:45:00 12.2 C 9.17 g/m*3 12.2 C 17.7 km/h
191 16-11-2020 15:50:00 12.2 C 9.17 g/m*3 12.2 C 19.3 km/h
192 16-11-2020 15:55:00 12.1 C 9.12 g/m*3 12.1 C 11.3 km/h
193 16-11-2020 16:00:00 12 C 9.06 g/m*3 12 C 19.3 km/h
194 16-11-2020 16:05:00 11.9 C 9 g/m*3 11.9 C 17.7 km/h
195 16-11-2020 16:10:00 11.8 C 9.05 g/m*3 11.8 C 16.1 km/h
196 16-11-2020 16:15:00 11.7 C 8.99 g/m*3 11.7 C 14.5 km/h
197 16-11-2020 16:20:00 11.7 C 8.99 g/m*3 11.7 C 14.5 km/h
198 16-11-2020 16:25:00 11.6 C 9.04 g/m*3 11.6 C 16.1 km/h
199 16-11-2020 16:30:00 11.6 C 9.04 g/m*3 11.6 C 16.1 km/h
200 16-11-2020 16:35:00 11.6 C 9.04 g/m*3 11.6 C 12.9 km/h
Sensor: Nr:Datum:Temp:Abs-Feuchte:Windchill:Wind:
Aussen-T/F 201 16-11-2020 16:40:00 11.5 C 8.99 g/m*3 11.5 C 11.3 km/h
202 16-11-2020 16:45:00 11.5 C 8.99 g/m*3 11.5 C 17.7 km/h
203 16-11-2020 16:50:00 11.4 C 8.93 g/m*3 11.4 C 12.9 km/h
204 16-11-2020 16:55:00 11.3 C 8.87 g/m*3 11.3 C 11.3 km/h
205 16-11-2020 17:00:00 11.3 C 8.98 g/m*3 11.3 C 11.3 km/h
206 16-11-2020 17:05:00 11.3 C 8.98 g/m*3 11.3 C 14.5 km/h
207 16-11-2020 17:10:00 11.2 C 8.92 g/m*3 11.2 C 14.5 km/h
208 16-11-2020 17:15:00 11.2 C 8.92 g/m*3 11.2 C 16.1 km/h
209 16-11-2020 17:20:00 11.3 C 8.98 g/m*3 11.3 C 12.9 km/h
210 16-11-2020 17:25:00 11.2 C 8.92 g/m*3 11.2 C 14.5 km/h
211 16-11-2020 17:30:00 11.2 C 8.92 g/m*3 11.2 C 12.9 km/h
212 16-11-2020 17:35:00 11.1 C 8.86 g/m*3 11.1 C 8.1 km/h
213 16-11-2020 17:40:00 11 C 8.81 g/m*3 11 C 4.8 km/h
214 16-11-2020 17:45:00 10.9 C 8.75 g/m*3 10.04 C 8.1 km/h
215 16-11-2020 17:50:00 10.8 C 8.8 g/m*3 10.8 C 4.8 km/h
216 16-11-2020 17:55:00 10.7 C 8.74 g/m*3 9.52 C 9.7 km/h
217 16-11-2020 18:00:00 10.7 C 8.74 g/m*3 10.18 C 6.4 km/h
218 16-11-2020 18:05:00 10.7 C 8.84 g/m*3 9.04 C 12.9 km/h
219 16-11-2020 18:10:00 10.8 C 8.9 g/m*3 9.16 C 12.9 km/h
220 16-11-2020 18:15:00 10.8 C 8.8 g/m*3 9.64 C 9.7 km/h
221 16-11-2020 18:20:00 10.8 C 8.8 g/m*3 8.96 C 14.5 km/h
222 16-11-2020 18:25:00 10.9 C 8.85 g/m*3 7.92 C 27.4 km/h
223 16-11-2020 18:30:00 11 C 8.91 g/m*3 9.21 C 14.5 km/h
224 16-11-2020 18:35:00 11.1 C 8.86 g/m*3 11.1 C 11.3 km/h
225 16-11-2020 18:40:00 11.1 C 8.86 g/m*3 11.1 C 9.7 km/h
Sensor: Nr:Datum:Temp:Abs-Feuchte:Windchill:Wind:
Aussen-T/F 226 16-11-2020 18:45:00 11 C 8.81 g/m*3 9.88 C 9.7 km/h
227 16-11-2020 18:50:00 11 C 8.81 g/m*3 9.63 C 11.3 km/h
228 16-11-2020 18:55:00 11 C 8.81 g/m*3 9.63 C 11.3 km/h
229 16-11-2020 19:00:00 10.9 C 8.75 g/m*3 10.04 C 8.1 km/h
230 16-11-2020 19:05:00 11 C 8.81 g/m*3 9.88 C 9.7 km/h
231 16-11-2020 19:10:00 11.1 C 8.86 g/m*3 11.1 C 12.9 km/h
232 16-11-2020 19:15:00 11.2 C 8.92 g/m*3 11.2 C 11.3 km/h
233 16-11-2020 19:20:00 11.2 C 8.92 g/m*3 11.2 C 11.3 km/h
234 16-11-2020 19:25:00 11.2 C 8.82 g/m*3 11.2 C 11.3 km/h
235 16-11-2020 19:30:00 11.2 C 8.82 g/m*3 11.2 C 9.7 km/h
236 16-11-2020 19:35:00 11.2 C 8.82 g/m*3 11.2 C 6.4 km/h
237 16-11-2020 19:40:00 11.2 C 8.82 g/m*3 11.2 C 8.1 km/h
238 16-11-2020 19:45:00 11.2 C 8.82 g/m*3 11.2 C 8.1 km/h
239 16-11-2020 19:50:00 11.2 C 8.82 g/m*3 11.2 C 8.1 km/h
240 16-11-2020 19:55:00 11.2 C 8.82 g/m*3 11.2 C 6.4 km/h
241 16-11-2020 20:00:00 11.2 C 8.82 g/m*3 11.2 C 8.1 km/h
242 16-11-2020 20:05:00 11.2 C 8.82 g/m*3 11.2 C 6.4 km/h
243 16-11-2020 20:10:00 11.1 C 8.86 g/m*3 11.1 C 11.3 km/h
244 16-11-2020 20:15:00 11 C 8.81 g/m*3 9.88 C 9.7 km/h
245 16-11-2020 20:20:00 10.9 C 8.75 g/m*3 10.9 C 3.2 km/h
246 16-11-2020 20:25:00 10.8 C 8.7 g/m*3 9.93 C 8.1 km/h
247 16-11-2020 20:30:00 10.7 C 8.64 g/m*3 9.81 C 8.1 km/h
248 16-11-2020 20:35:00 10.7 C 8.74 g/m*3 10.7 C 4.8 km/h
249 16-11-2020 20:40:00 10.6 C 8.59 g/m*3 10.6 C 4.8 km/h
250 16-11-2020 20:45:00 10.5 C 8.53 g/m*3 9.95 C 6.4 km/h
Sensor: Nr:Datum:Temp:Abs-Feuchte:Windchill:Wind:
Aussen-T/F 251 16-11-2020 20:50:00 10.4 C 8.48 g/m*3 10.4 C 1.6 km/h
252 16-11-2020 20:55:00 10.3 C 8.43 g/m*3 10.3 C 1.6 km/h
253 16-11-2020 21:00:00 10.2 C 8.37 g/m*3 10.2 C 4.8 km/h
254 16-11-2020 21:05:00 10.1 C 8.32 g/m*3 10.1 C 4.8 km/h
255 16-11-2020 21:10:00 10 C 8.27 g/m*3 10 C 1.6 km/h
256 16-11-2020 21:15:00 9.9 C 8.22 g/m*3 9.9 C 4.8 km/h
257 16-11-2020 21:20:00 9.7 C 8.11 g/m*3 9.7 C 1.6 km/h
258 16-11-2020 21:25:00 9.6 C 8.15 g/m*3 9.6 C 4.8 km/h
259 16-11-2020 21:30:00 9.5 C 8.1 g/m*3 9.5 C 4.8 km/h
260 16-11-2020 21:35:00 9.4 C 8.05 g/m*3 9.4 C 0 km/h
261 16-11-2020 21:40:00 9.3 C 8.09 g/m*3 9.3 C 0 km/h
262 16-11-2020 21:45:00 9.2 C 8.04 g/m*3 8.05 C 8.1 km/h
263 16-11-2020 21:50:00 9.2 C 8.04 g/m*3 8.05 C 8.1 km/h
264 16-11-2020 21:55:00 9.2 C 8.04 g/m*3 9.2 C 3.2 km/h
265 16-11-2020 22:00:00 9.1 C 7.99 g/m*3 8.33 C 6.4 km/h
266 16-11-2020 22:05:00 9.1 C 7.99 g/m*3 9.1 C 3.2 km/h
267 16-11-2020 22:10:00 8.9 C 7.88 g/m*3 8.9 C 3.2 km/h
268 16-11-2020 22:15:00 8.8 C 7.83 g/m*3 8.8 C 1.6 km/h
269 16-11-2020 22:20:00 8.7 C 7.78 g/m*3 8.7 C 1.6 km/h
270 16-11-2020 22:25:00 8.6 C 7.73 g/m*3 8.6 C 3.2 km/h
271 16-11-2020 22:30:00 8.7 C 7.87 g/m*3 6.85 C 11.3 km/h
272 16-11-2020 22:35:00 8.7 C 7.87 g/m*3 7.87 C 6.4 km/h
273 16-11-2020 22:40:00 8.7 C 7.87 g/m*3 8.7 C 4.8 km/h
274 16-11-2020 22:45:00 8.7 C 7.96 g/m*3 7.87 C 6.4 km/h
275 16-11-2020 22:50:00 8.7 C 7.87 g/m*3 7.87 C 6.4 km/h
Sensor: Nr:Datum:Temp:Abs-Feuchte:Windchill:Wind:
Aussen-T/F 276 16-11-2020 22:55:00 8.8 C 7.92 g/m*3 7.98 C 6.4 km/h
277 16-11-2020 23:00:00 8.8 C 7.92 g/m*3 7.58 C 8.1 km/h
278 16-11-2020 23:05:00 9 C 8.02 g/m*3 7.49 C 9.7 km/h
279 16-11-2020 23:10:00 9.2 C 8.13 g/m*3 8.45 C 6.4 km/h
280 16-11-2020 23:15:00 9.2 C 8.04 g/m*3 9.2 C 4.8 km/h
281 16-11-2020 23:20:00 9.2 C 8.04 g/m*3 8.45 C 6.4 km/h
282 16-11-2020 23:25:00 9.1 C 7.99 g/m*3 7.93 C 8.1 km/h
283 16-11-2020 23:30:00 9.2 C 8.04 g/m*3 9.2 C 4.8 km/h
284 16-11-2020 23:35:00 9.2 C 8.04 g/m*3 9.2 C 4.8 km/h
285 16-11-2020 23:40:00 9.1 C 7.99 g/m*3 9.1 C 4.8 km/h
286 16-11-2020 23:45:00 9.2 C 8.13 g/m*3 7.73 C 9.7 km/h
287 16-11-2020 23:50:00 9.2 C 8.13 g/m*3 7.46 C 11.3 km/h
288 16-11-2020 23:55:00 9.3 C 8.09 g/m*3 7.85 C 9.7 km/h
289 17-11-2020 00:00:00 9.3 C 8.09 g/m*3 7.33 C 12.9 km/h
290 17-11-2020 00:05:00 9.4 C 8.14 g/m*3 9.4 C 4.8 km/h
291 17-11-2020 00:10:00 9.4 C 8.14 g/m*3 9.4 C 3.2 km/h
292 17-11-2020 00:15:00 9.4 C 8.14 g/m*3 8.28 C 8.1 km/h
293 17-11-2020 00:20:00 9.3 C 8.09 g/m*3 9.3 C 0 km/h
294 17-11-2020 00:25:00 9.2 C 8.04 g/m*3 9.2 C 4.8 km/h
295 17-11-2020 00:30:00 9.2 C 8.04 g/m*3 9.2 C 3.2 km/h
296 17-11-2020 00:35:00 9.3 C 8.09 g/m*3 7.12 C 14.5 km/h
297 17-11-2020 00:40:00 9.3 C 8.09 g/m*3 8.16 C 8.1 km/h
298 17-11-2020 00:45:00 9.4 C 8.14 g/m*3 7.46 C 12.9 km/h
299 17-11-2020 00:50:00 9.6 C 8.15 g/m*3 8.52 C 8.1 km/h
300 17-11-2020 00:55:00 9.7 C 8.2 g/m*3 8.63 C 8.1 km/h
Sensor: Nr:Datum:Temp:Abs-Feuchte:Windchill:Wind:
Aussen-T/F 301 17-11-2020 01:00:00 9.8 C 8.26 g/m*3 9.8 C 3.2 km/h
302 17-11-2020 01:05:00 9.8 C 8.26 g/m*3 8.18 C 11.3 km/h
303 17-11-2020 01:10:00 10 C 8.27 g/m*3 8.99 C 8.1 km/h
304 17-11-2020 01:15:00 10 C 8.27 g/m*3 10 C 4.8 km/h
305 17-11-2020 01:20:00 10.1 C 8.32 g/m*3 10.1 C 1.6 km/h
306 17-11-2020 01:25:00 10 C 8.27 g/m*3 10 C 4.8 km/h
307 17-11-2020 01:30:00 10 C 8.27 g/m*3 10 C 4.8 km/h
308 17-11-2020 01:35:00 10 C 8.27 g/m*3 8.99 C 8.1 km/h
309 17-11-2020 01:40:00 10.1 C 8.32 g/m*3 8.8 C 9.7 km/h
310 17-11-2020 01:45:00 10.1 C 8.23 g/m*3 8.54 C 11.3 km/h
311 17-11-2020 01:50:00 10.2 C 8.28 g/m*3 9.6 C 6.4 km/h
312 17-11-2020 01:55:00 10.2 C 8.28 g/m*3 9.22 C 8.1 km/h
313 17-11-2020 02:00:00 10.2 C 8.28 g/m*3 8.92 C 9.7 km/h
314 17-11-2020 02:05:00 10.3 C 8.33 g/m*3 8.78 C 11.3 km/h
315 17-11-2020 02:10:00 10.3 C 8.33 g/m*3 8.55 C 12.9 km/h
316 17-11-2020 02:15:00 10.4 C 8.38 g/m*3 9.16 C 9.7 km/h
317 17-11-2020 02:20:00 10.4 C 8.38 g/m*3 8.47 C 14.5 km/h
318 17-11-2020 02:25:00 10.4 C 8.38 g/m*3 8.9 C 11.3 km/h
319 17-11-2020 02:30:00 10.5 C 8.44 g/m*3 9.57 C 8.1 km/h
320 17-11-2020 02:35:00 10.6 C 8.49 g/m*3 9.14 C 11.3 km/h
321 17-11-2020 02:40:00 10.6 C 8.49 g/m*3 9.14 C 11.3 km/h
322 17-11-2020 02:45:00 10.6 C 8.49 g/m*3 10.6 C 4.8 km/h
323 17-11-2020 02:50:00 10.5 C 8.44 g/m*3 9.02 C 11.3 km/h
324 17-11-2020 02:55:00 10.5 C 8.44 g/m*3 9.57 C 8.1 km/h
325 17-11-2020 03:00:00 10.5 C 8.44 g/m*3 8.8 C 12.9 km/h
Sensor: Nr:Datum:Temp:Abs-Feuchte:Windchill:Wind:
Aussen-T/F 326 17-11-2020 03:05:00 10.6 C 8.49 g/m*3 9.14 C 11.3 km/h
327 17-11-2020 03:10:00 10.6 C 8.39 g/m*3 9.4 C 9.7 km/h
328 17-11-2020 03:15:00 10.6 C 8.39 g/m*3 9.14 C 11.3 km/h
329 17-11-2020 03:20:00 10.6 C 8.39 g/m*3 9.4 C 9.7 km/h
330 17-11-2020 03:25:00 10.6 C 8.39 g/m*3 9.14 C 11.3 km/h
331 17-11-2020 03:30:00 10.5 C 8.34 g/m*3 9.95 C 6.4 km/h
332 17-11-2020 03:35:00 10.6 C 8.49 g/m*3 9.4 C 9.7 km/h
333 17-11-2020 03:40:00 10.6 C 8.39 g/m*3 9.14 C 11.3 km/h
334 17-11-2020 03:45:00 10.6 C 8.49 g/m*3 9.4 C 9.7 km/h
335 17-11-2020 03:50:00 10.6 C 8.39 g/m*3 9.14 C 11.3 km/h
336 17-11-2020 03:55:00 10.7 C 8.45 g/m*3 8.48 C 17.7 km/h
337 17-11-2020 04:00:00 10.7 C 8.45 g/m*3 9.52 C 9.7 km/h
338 17-11-2020 04:05:00 10.7 C 8.45 g/m*3 9.04 C 12.9 km/h
339 17-11-2020 04:10:00 10.6 C 8.39 g/m*3 9.4 C 9.7 km/h
340 17-11-2020 04:15:00 10.6 C 8.49 g/m*3 8.53 C 16.1 km/h
341 17-11-2020 04:20:00 10.6 C 8.49 g/m*3 9.4 C 9.7 km/h
342 17-11-2020 04:25:00 10.6 C 8.49 g/m*3 9.14 C 11.3 km/h
343 17-11-2020 04:30:00 10.7 C 8.55 g/m*3 9.04 C 12.9 km/h
344 17-11-2020 04:35:00 10.7 C 8.45 g/m*3 9.26 C 11.3 km/h
345 17-11-2020 04:40:00 10.7 C 8.45 g/m*3 9.52 C 9.7 km/h
346 17-11-2020 04:45:00 10.7 C 8.45 g/m*3 9.26 C 11.3 km/h
347 17-11-2020 04:50:00 10.8 C 8.5 g/m*3 9.93 C 8.1 km/h
348 17-11-2020 04:55:00 10.8 C 8.5 g/m*3 8.96 C 14.5 km/h
349 17-11-2020 05:00:00 10.8 C 8.5 g/m*3 10.29 C 6.4 km/h
350 17-11-2020 05:05:00 10.8 C 8.5 g/m*3 9.64 C 9.7 km/h
Sensor: Nr:Datum:Temp:Abs-Feuchte:Windchill:Wind:
Aussen-T/F 351 17-11-2020 05:10:00 10.7 C 8.45 g/m*3 9.52 C 9.7 km/h
352 17-11-2020 05:15:00 10.7 C 8.45 g/m*3 8.65 C 16.1 km/h
353 17-11-2020 05:20:00 10.8 C 8.5 g/m*3 8.96 C 14.5 km/h
354 17-11-2020 05:25:00 10.8 C 8.5 g/m*3 8.96 C 14.5 km/h
355 17-11-2020 05:30:00 10.8 C 8.5 g/m*3 9.16 C 12.9 km/h
356 17-11-2020 05:35:00 10.8 C 8.5 g/m*3 9.93 C 8.1 km/h
357 17-11-2020 05:40:00 10.8 C 8.5 g/m*3 10.29 C 6.4 km/h
358 17-11-2020 05:45:00 10.7 C 8.55 g/m*3 9.52 C 9.7 km/h
359 17-11-2020 05:50:00 10.6 C 8.59 g/m*3 9.14 C 11.3 km/h
360 17-11-2020 05:55:00 10.5 C 8.53 g/m*3 8.8 C 12.9 km/h
361 17-11-2020 06:00:00 10.4 C 8.58 g/m*3 8.9 C 11.3 km/h
362 17-11-2020 06:05:00 10.3 C 8.52 g/m*3 10.3 C 4.8 km/h
363 17-11-2020 06:10:00 10.3 C 8.52 g/m*3 9.34 C 8.1 km/h
364 17-11-2020 06:15:00 10.3 C 8.52 g/m*3 8.34 C 14.5 km/h
365 17-11-2020 06:20:00 10.4 C 8.48 g/m*3 9.16 C 9.7 km/h
366 17-11-2020 06:25:00 10.4 C 8.48 g/m*3 8.9 C 11.3 km/h
367 17-11-2020 06:30:00 10.4 C 8.48 g/m*3 9.46 C 8.1 km/h
368 17-11-2020 06:35:00 10.5 C 8.44 g/m*3 9.02 C 11.3 km/h
369 17-11-2020 06:40:00 10.6 C 8.49 g/m*3 8.71 C 14.5 km/h
370 17-11-2020 06:45:00 10.6 C 8.49 g/m*3 8.71 C 14.5 km/h
371 17-11-2020 06:50:00 10.6 C 8.39 g/m*3 9.69 C 8.1 km/h
372 17-11-2020 06:55:00 10.6 C 8.49 g/m*3 10.6 C 4.8 km/h
373 17-11-2020 07:00:00 10.6 C 8.39 g/m*3 10.06 C 6.4 km/h
374 17-11-2020 07:05:00 10.6 C 8.39 g/m*3 10.6 C 3.2 km/h
375 17-11-2020 07:10:00 10.6 C 8.39 g/m*3 9.69 C 8.1 km/h
Sensor: Nr:Datum:Temp:Abs-Feuchte:Windchill:Wind:
Aussen-T/F 376 17-11-2020 07:15:00 10.6 C 8.39 g/m*3 10.6 C 4.8 km/h
377 17-11-2020 07:20:00 10.6 C 8.39 g/m*3 10.6 C 1.6 km/h
378 17-11-2020 07:25:00 10.6 C 8.39 g/m*3 10.6 C 1.6 km/h
379 17-11-2020 07:30:00 10.6 C 8.39 g/m*3 10.6 C 3.2 km/h
380 17-11-2020 07:35:00 10.6 C 8.39 g/m*3 10.6 C 4.8 km/h
381 17-11-2020 07:40:00 10.6 C 8.39 g/m*3 9.69 C 8.1 km/h
382 17-11-2020 07:45:00 10.6 C 8.39 g/m*3 9.14 C 11.3 km/h
383 17-11-2020 07:50:00 10.6 C 8.39 g/m*3 9.14 C 11.3 km/h
384 17-11-2020 07:55:00 10.7 C 8.45 g/m*3 10.7 C 4.8 km/h
385 17-11-2020 08:00:00 10.7 C 8.45 g/m*3 9.81 C 8.1 km/h
386 17-11-2020 08:05:00 10.6 C 8.39 g/m*3 10.6 C 4.8 km/h
387 17-11-2020 08:10:00 10.6 C 8.39 g/m*3 10.6 C 3.2 km/h
388 17-11-2020 08:15:00 10.6 C 8.39 g/m*3 9.69 C 8.1 km/h
389 17-11-2020 08:20:00 10.7 C 8.45 g/m*3 9.81 C 8.1 km/h
390 17-11-2020 08:25:00 10.7 C 8.45 g/m*3 10.7 C 4.8 km/h
391 17-11-2020 08:30:00 10.7 C 8.45 g/m*3 9.81 C 8.1 km/h
392 17-11-2020 08:35:00 10.7 C 8.45 g/m*3 10.7 C 4.8 km/h
393 17-11-2020 08:40:00 10.7 C 8.45 g/m*3 9.81 C 8.1 km/h
394 17-11-2020 08:45:00 10.8 C 8.5 g/m*3 10.8 C 4.8 km/h
395 17-11-2020 08:50:00 10.8 C 8.5 g/m*3 9.93 C 8.1 km/h
396 17-11-2020 08:55:00 10.8 C 8.5 g/m*3 10.8 C 4.8 km/h
397 17-11-2020 09:00:00 10.8 C 8.5 g/m*3 10.8 C 1.6 km/h
398 17-11-2020 09:05:00 10.8 C 8.5 g/m*3 10.8 C 1.6 km/h
399 17-11-2020 09:10:00 10.8 C 8.5 g/m*3 9.93 C 8.1 km/h
400 17-11-2020 09:15:00 10.9 C 8.55 g/m*3 9.76 C 9.7 km/h
Sensor: Nr:Datum:Temp:Abs-Feuchte:Windchill:Wind:
Aussen-T/F 401 17-11-2020 09:20:00 10.9 C 8.55 g/m*3 9.08 C 14.5 km/h
402 17-11-2020 09:25:00 11 C 8.61 g/m*3 9.4 C 12.9 km/h
403 17-11-2020 09:30:00 11.1 C 8.66 g/m*3 11.1 C 6.4 km/h
404 17-11-2020 09:35:00 11.1 C 8.66 g/m*3 11.1 C 12.9 km/h
405 17-11-2020 09:40:00 11.1 C 8.66 g/m*3 11.1 C 9.7 km/h
406 17-11-2020 09:45:00 11.1 C 8.56 g/m*3 11.1 C 12.9 km/h
407 17-11-2020 09:50:00 11.2 C 8.72 g/m*3 11.2 C 11.3 km/h
408 17-11-2020 09:55:00 11.2 C 8.62 g/m*3 11.2 C 12.9 km/h
409 17-11-2020 10:00:00 11.2 C 8.62 g/m*3 11.2 C 17.7 km/h
410 17-11-2020 10:05:00 11.2 C 8.62 g/m*3 11.2 C 16.1 km/h
411 17-11-2020 10:10:00 11.2 C 8.62 g/m*3 11.2 C 16.1 km/h
412 17-11-2020 10:15:00 11.2 C 8.72 g/m*3 11.2 C 20.9 km/h
413 17-11-2020 10:20:00 11.3 C 8.67 g/m*3 11.3 C 14.5 km/h
414 17-11-2020 10:25:00 11.4 C 8.72 g/m*3 11.4 C 16.1 km/h
415 17-11-2020 10:30:00 11.4 C 8.72 g/m*3 11.4 C 19.3 km/h
416 17-11-2020 10:35:00 11.4 C 8.72 g/m*3 11.4 C 16.1 km/h
417 17-11-2020 10:40:00 11.5 C 8.78 g/m*3 11.5 C 12.9 km/h
418 17-11-2020 10:45:00 11.6 C 8.73 g/m*3 11.6 C 19.3 km/h
419 17-11-2020 10:50:00 11.7 C 8.79 g/m*3 11.7 C 20.9 km/h
420 17-11-2020 10:55:00 11.8 C 8.84 g/m*3 11.8 C 12.9 km/h
421 17-11-2020 11:00:00 11.8 C 8.84 g/m*3 11.8 C 16.1 km/h
422 17-11-2020 11:05:00 11.8 C 8.84 g/m*3 11.8 C 14.5 km/h
423 17-11-2020 11:10:00 11.9 C 8.9 g/m*3 11.9 C 14.5 km/h
424 17-11-2020 11:15:00 11.9 C 8.79 g/m*3 11.9 C 24.1 km/h
425 17-11-2020 11:20:00 11.9 C 8.79 g/m*3 11.9 C 24.1 km/h
Sensor: Nr:Datum:Temp:Abs-Feuchte:Windchill:Wind:
Aussen-T/F 426 17-11-2020 11:25:00 11.9 C 8.79 g/m*3 11.9 C 17.7 km/h
427 17-11-2020 11:30:00 11.9 C 8.79 g/m*3 11.9 C 20.9 km/h
428 17-11-2020 11:35:00 12 C 8.85 g/m*3 12 C 19.3 km/h
429 17-11-2020 11:40:00 12.1 C 8.9 g/m*3 12.1 C 20.9 km/h
430 17-11-2020 11:45:00 12.2 C 8.96 g/m*3 12.2 C 16.1 km/h
431 17-11-2020 11:50:00 12.2 C 8.96 g/m*3 12.2 C 20.9 km/h
432 17-11-2020 11:55:00 12.3 C 9.01 g/m*3 12.3 C 16.1 km/h
433 17-11-2020 12:00:00 12.3 C 9.01 g/m*3 12.3 C 16.1 km/h
434 17-11-2020 12:05:00 12.4 C 8.96 g/m*3 12.4 C 20.9 km/h
435 17-11-2020 12:10:00 12.5 C 9.02 g/m*3 12.5 C 9.7 km/h
436 17-11-2020 12:15:00 12.6 C 9.07 g/m*3 12.6 C 11.3 km/h
437 17-11-2020 12:20:00 12.6 C 9.07 g/m*3 12.6 C 14.5 km/h
438 17-11-2020 12:25:00 12.7 C 9.13 g/m*3 12.7 C 11.3 km/h
439 17-11-2020 12:30:00 12.7 C 9.13 g/m*3 12.7 C 16.1 km/h
440 17-11-2020 12:35:00 12.8 C 9.07 g/m*3 12.8 C 12.9 km/h
441 17-11-2020 12:40:00 12.8 C 9.07 g/m*3 12.8 C 9.7 km/h
442 17-11-2020 12:45:00 12.8 C 8.96 g/m*3 12.8 C 16.1 km/h
443 17-11-2020 12:50:00 12.8 C 9.07 g/m*3 12.8 C 14.5 km/h
444 17-11-2020 12:55:00 12.7 C 9.02 g/m*3 12.7 C 11.3 km/h
445 17-11-2020 13:00:00 12.7 C 9.02 g/m*3 12.7 C 19.3 km/h
446 17-11-2020 13:05:00 12.7 C 9.02 g/m*3 12.7 C 12.9 km/h
447 17-11-2020 13:10:00 12.7 C 9.02 g/m*3 12.7 C 9.7 km/h
448 17-11-2020 13:15:00 12.8 C 9.07 g/m*3 12.8 C 11.3 km/h
449 17-11-2020 13:20:00 12.8 C 9.07 g/m*3 12.8 C 11.3 km/h
450 17-11-2020 13:25:00 12.8 C 9.07 g/m*3 12.8 C 12.9 km/h
Sensor: Nr:Datum:Temp:Abs-Feuchte:Windchill:Wind:
Aussen-T/F 451 17-11-2020 13:30:00 12.9 C 9.13 g/m*3 12.9 C 14.5 km/h
452 17-11-2020 13:35:00 12.9 C 9.13 g/m*3 12.9 C 16.1 km/h
453 17-11-2020 13:40:00 12.9 C 9.13 g/m*3 12.9 C 11.3 km/h
454 17-11-2020 13:45:00 12.9 C 9.13 g/m*3 12.9 C 6.4 km/h
455 17-11-2020 13:50:00 12.9 C 9.13 g/m*3 12.9 C 16.1 km/h
456 17-11-2020 13:55:00 12.9 C 9.13 g/m*3 12.9 C 12.9 km/h
457 17-11-2020 14:00:00 13 C 9.07 g/m*3 13 C 12.9 km/h
458 17-11-2020 14:05:00 13.1 C 9.13 g/m*3 13.1 C 11.3 km/h
459 17-11-2020 14:10:00 13.1 C 9.13 g/m*3 13.1 C 14.5 km/h
460 17-11-2020 14:15:00 13.2 C 9.19 g/m*3 13.2 C 9.7 km/h
461 17-11-2020 14:20:00 13.1 C 9.13 g/m*3 13.1 C 9.7 km/h
462 17-11-2020 14:25:00 13.1 C 9.13 g/m*3 13.1 C 9.7 km/h
463 17-11-2020 14:30:00 13.1 C 9.13 g/m*3 13.1 C 8.1 km/h
464 17-11-2020 14:35:00 13.1 C 9.13 g/m*3 13.1 C 8.1 km/h
465 17-11-2020 14:40:00 13 C 9.07 g/m*3 13 C 6.4 km/h
466 17-11-2020 14:45:00 12.9 C 9.02 g/m*3 12.9 C 8.1 km/h
467 17-11-2020 14:50:00 12.9 C 9.02 g/m*3 12.9 C 11.3 km/h
468 17-11-2020 14:55:00 12.9 C 9.13 g/m*3 12.9 C 8.1 km/h
469 17-11-2020 15:00:00 12.8 C 9.07 g/m*3 12.8 C 9.7 km/h
470 17-11-2020 15:05:00 12.8 C 9.07 g/m*3 12.8 C 8.1 km/h
471 17-11-2020 15:10:00 12.8 C 9.07 g/m*3 12.8 C 6.4 km/h
472 17-11-2020 15:15:00 12.8 C 9.07 g/m*3 12.8 C 14.5 km/h
473 17-11-2020 15:20:00 12.8 C 9.07 g/m*3 12.8 C 9.7 km/h
474 17-11-2020 15:25:00 12.8 C 9.07 g/m*3 12.8 C 12.9 km/h
475 17-11-2020 15:30:00 12.8 C 9.07 g/m*3 12.8 C 6.4 km/h
Sensor: Nr:Datum:Temp:Abs-Feuchte:Windchill:Wind:
Aussen-T/F 476 17-11-2020 15:35:00 12.8 C 9.07 g/m*3 12.8 C 9.7 km/h
477 17-11-2020 15:40:00 12.8 C 9.07 g/m*3 12.8 C 6.4 km/h
478 17-11-2020 15:45:00 12.8 C 9.07 g/m*3 12.8 C 6.4 km/h
479 17-11-2020 15:50:00 12.8 C 9.07 g/m*3 12.8 C 4.8 km/h
480 17-11-2020 15:55:00 12.8 C 9.07 g/m*3 12.8 C 8.1 km/h
481 17-11-2020 16:00:00 12.8 C 9.07 g/m*3 12.8 C 8.1 km/h
482 17-11-2020 16:05:00 12.7 C 9.02 g/m*3 12.7 C 8.1 km/h
483 17-11-2020 16:10:00 12.7 C 9.02 g/m*3 12.7 C 9.7 km/h
484 17-11-2020 16:15:00 12.7 C 9.02 g/m*3 12.7 C 9.7 km/h
485 17-11-2020 16:20:00 12.7 C 9.02 g/m*3 12.7 C 4.8 km/h
486 17-11-2020 16:25:00 12.7 C 9.02 g/m*3 12.7 C 12.9 km/h
487 17-11-2020 16:30:00 12.7 C 9.13 g/m*3 12.7 C 8.1 km/h
488 17-11-2020 16:35:00 12.6 C 9.07 g/m*3 12.6 C 9.7 km/h
489 17-11-2020 16:40:00 12.6 C 8.96 g/m*3 12.6 C 12.9 km/h
490 17-11-2020 16:45:00 12.6 C 9.07 g/m*3 12.6 C 8.1 km/h
491 17-11-2020 16:50:00 12.6 C 9.07 g/m*3 12.6 C 6.4 km/h
492 17-11-2020 16:55:00 12.5 C 9.02 g/m*3 12.5 C 11.3 km/h
493 17-11-2020 17:00:00 12.5 C 9.02 g/m*3 12.5 C 6.4 km/h
494 17-11-2020 17:05:00 12.4 C 8.96 g/m*3 12.4 C 4.8 km/h
495 17-11-2020 17:10:00 12.4 C 8.96 g/m*3 12.4 C 4.8 km/h
496 17-11-2020 17:15:00 12.4 C 8.96 g/m*3 12.4 C 4.8 km/h
497 17-11-2020 17:20:00 12.4 C 8.96 g/m*3 12.4 C 11.3 km/h
498 17-11-2020 17:25:00 12.4 C 9.07 g/m*3 12.4 C 6.4 km/h
499 17-11-2020 17:30:00 12.4 C 9.07 g/m*3 12.4 C 8.1 km/h
500 17-11-2020 17:35:00 12.3 C 9.01 g/m*3 12.3 C 1.6 km/h
Sensor: Nr:Datum:Temp:Abs-Feuchte:Windchill:Wind:
Aussen-T/F 501 17-11-2020 17:40:00 12.3 C 9.01 g/m*3 12.3 C 6.4 km/h
502 17-11-2020 17:45:00 12.3 C 9.01 g/m*3 12.3 C 1.6 km/h
503 17-11-2020 17:50:00 12.3 C 9.01 g/m*3 12.3 C 3.2 km/h
504 17-11-2020 17:55:00 12.3 C 9.01 g/m*3 12.3 C 6.4 km/h
505 17-11-2020 18:00:00 12.3 C 9.01 g/m*3 12.3 C 6.4 km/h
506 17-11-2020 18:05:00 12.3 C 9.01 g/m*3 12.3 C 11.3 km/h
507 17-11-2020 18:10:00 12.3 C 9.01 g/m*3 12.3 C 1.6 km/h
508 17-11-2020 18:15:00 12.3 C 9.01 g/m*3 12.3 C 0 km/h
509 17-11-2020 18:20:00 12.3 C 9.01 g/m*3 12.3 C 4.8 km/h
510 17-11-2020 18:25:00 12.3 C 9.01 g/m*3 12.3 C 4.8 km/h
511 17-11-2020 18:30:00 12.3 C 9.01 g/m*3 12.3 C 1.6 km/h
512 17-11-2020 18:35:00 12.2 C 8.96 g/m*3 12.2 C 1.6 km/h
513 17-11-2020 18:40:00 12.2 C 8.96 g/m*3 12.2 C 3.2 km/h
514 17-11-2020 18:45:00 12.2 C 9.06 g/m*3 12.2 C 0 km/h
515 17-11-2020 18:50:00 12.2 C 9.06 g/m*3 12.2 C 1.6 km/h
516 17-11-2020 18:55:00 12.1 C 9.01 g/m*3 12.1 C 4.8 km/h
517 17-11-2020 19:00:00 12.1 C 9.01 g/m*3 12.1 C 0 km/h
518 17-11-2020 19:05:00 12.1 C 9.01 g/m*3 12.1 C 1.6 km/h
519 17-11-2020 19:10:00 12.1 C 9.01 g/m*3 12.1 C 0 km/h
520 17-11-2020 19:15:00 12 C 8.95 g/m*3 12 C 1.6 km/h
521 17-11-2020 19:20:00 12 C 8.95 g/m*3 12 C 0 km/h
522 17-11-2020 19:25:00 11.9 C 9 g/m*3 11.9 C 0 km/h
523 17-11-2020 19:30:00 11.9 C 9 g/m*3 11.9 C 0 km/h
524 17-11-2020 19:35:00 11.9 C 9 g/m*3 11.9 C 1.6 km/h
525 17-11-2020 19:40:00 11.9 C 9 g/m*3 11.9 C 1.6 km/h
Sensor: Nr:Datum:Temp:Abs-Feuchte:Windchill:Wind:
Aussen-T/F 526 17-11-2020 19:45:00 11.9 C 9 g/m*3 11.9 C 0 km/h
527 17-11-2020 19:50:00 11.8 C 8.95 g/m*3 11.8 C 3.2 km/h
528 17-11-2020 19:55:00 11.8 C 9.05 g/m*3 11.8 C 3.2 km/h
529 17-11-2020 20:00:00 11.9 C 9.11 g/m*3 11.9 C 6.4 km/h
530 17-11-2020 20:05:00 11.9 C 9.11 g/m*3 11.9 C 6.4 km/h
531 17-11-2020 20:10:00 11.9 C 9.11 g/m*3 11.9 C 1.6 km/h
532 17-11-2020 20:15:00 11.8 C 9.05 g/m*3 11.8 C 8.1 km/h
533 17-11-2020 20:20:00 11.8 C 9.05 g/m*3 11.8 C 1.6 km/h
534 17-11-2020 20:25:00 11.8 C 9.05 g/m*3 11.8 C 3.2 km/h
535 17-11-2020 20:30:00 11.8 C 9.05 g/m*3 11.8 C 4.8 km/h
536 17-11-2020 20:35:00 11.8 C 9.05 g/m*3 11.8 C 6.4 km/h
537 17-11-2020 20:40:00 11.8 C 9.05 g/m*3 11.8 C 4.8 km/h
538 17-11-2020 20:45:00 11.9 C 9.11 g/m*3 11.9 C 3.2 km/h
539 17-11-2020 20:50:00 11.9 C 9.11 g/m*3 11.9 C 6.4 km/h
540 17-11-2020 20:55:00 11.9 C 9.11 g/m*3 11.9 C 9.7 km/h
541 17-11-2020 21:00:00 11.9 C 9.11 g/m*3 11.9 C 1.6 km/h
542 17-11-2020 21:05:00 11.8 C 9.05 g/m*3 11.8 C 3.2 km/h
543 17-11-2020 21:10:00 11.8 C 9.05 g/m*3 11.8 C 0 km/h
544 17-11-2020 21:15:00 11.8 C 9.05 g/m*3 11.8 C 11.3 km/h
545 17-11-2020 21:20:00 11.9 C 9.11 g/m*3 11.9 C 4.8 km/h
546 17-11-2020 21:25:00 11.9 C 9.11 g/m*3 11.9 C 1.6 km/h
547 17-11-2020 21:30:00 11.8 C 9.05 g/m*3 11.8 C 1.6 km/h
548 17-11-2020 21:35:00 11.8 C 9.05 g/m*3 11.8 C 4.8 km/h
549 17-11-2020 21:40:00 11.8 C 9.05 g/m*3 11.8 C 8.1 km/h
550 17-11-2020 21:45:00 11.8 C 9.05 g/m*3 11.8 C 4.8 km/h
Sensor: Nr:Datum:Temp:Abs-Feuchte:Windchill:Wind:
Aussen-T/F 551 17-11-2020 21:50:00 11.8 C 9.05 g/m*3 11.8 C 3.2 km/h
552 17-11-2020 21:55:00 11.8 C 9.05 g/m*3 11.8 C 1.6 km/h
553 17-11-2020 22:00:00 11.8 C 9.05 g/m*3 11.8 C 0 km/h
554 17-11-2020 22:05:00 11.7 C 8.99 g/m*3 11.7 C 0 km/h
555 17-11-2020 22:10:00 11.7 C 8.99 g/m*3 11.7 C 1.6 km/h
556 17-11-2020 22:15:00 11.7 C 8.99 g/m*3 11.7 C 1.6 km/h
557 17-11-2020 22:20:00 11.7 C 8.99 g/m*3 11.7 C 0 km/h
558 17-11-2020 22:25:00 11.7 C 9.1 g/m*3 11.7 C 0 km/h
559 17-11-2020 22:30:00 11.7 C 9.1 g/m*3 11.7 C 0 km/h
560 17-11-2020 22:35:00 11.6 C 9.04 g/m*3 11.6 C 0 km/h
561 17-11-2020 22:40:00 11.6 C 9.04 g/m*3 11.6 C 3.2 km/h
562 17-11-2020 22:45:00 11.6 C 9.04 g/m*3 11.6 C 4.8 km/h
563 17-11-2020 22:50:00 11.6 C 9.04 g/m*3 11.6 C 8.1 km/h
564 17-11-2020 22:55:00 11.6 C 9.04 g/m*3 11.6 C 3.2 km/h
565 17-11-2020 23:00:00 11.6 C 8.94 g/m*3 11.6 C 3.2 km/h
566 17-11-2020 23:05:00 11.6 C 8.94 g/m*3 11.6 C 3.2 km/h
567 17-11-2020 23:10:00 11.6 C 8.94 g/m*3 11.6 C 4.8 km/h
568 17-11-2020 23:15:00 11.5 C 8.88 g/m*3 11.5 C 3.2 km/h
569 17-11-2020 23:20:00 11.5 C 8.88 g/m*3 11.5 C 1.6 km/h
570 17-11-2020 23:25:00 11.5 C 8.88 g/m*3 11.5 C 1.6 km/h
571 17-11-2020 23:30:00 11.6 C 8.94 g/m*3 11.6 C 3.2 km/h
572 17-11-2020 23:35:00 11.6 C 8.83 g/m*3 11.6 C 4.8 km/h
573 17-11-2020 23:40:00 11.6 C 8.83 g/m*3 11.6 C 6.4 km/h
574 17-11-2020 23:45:00 11.6 C 8.83 g/m*3 11.6 C 6.4 km/h
575 17-11-2020 23:50:00 11.6 C 8.83 g/m*3 11.6 C 4.8 km/h
Sensor: Nr:Datum:Temp:Abs-Feuchte:Windchill:Wind:
Aussen-T/F 576 17-11-2020 23:55:00 11.7 C 8.89 g/m*3 11.7 C 3.2 km/h
577 18-11-2020 00:00:00 11.7 C 8.89 g/m*3 11.7 C 1.6 km/h
578 18-11-2020 00:05:00 11.7 C 8.89 g/m*3 11.7 C 1.6 km/h
579 18-11-2020 00:10:00 11.6 C 8.83 g/m*3 11.6 C 1.6 km/h
580 18-11-2020 00:15:00 11.6 C 8.83 g/m*3 11.6 C 0 km/h
581 18-11-2020 00:20:00 11.6 C 8.83 g/m*3 11.6 C 0 km/h
582 18-11-2020 00:25:00 11.6 C 8.83 g/m*3 11.6 C 1.6 km/h
583 18-11-2020 00:30:00 11.5 C 8.78 g/m*3 11.5 C 0 km/h
584 18-11-2020 00:35:00 11.5 C 8.78 g/m*3 11.5 C 4.8 km/h
585 18-11-2020 00:40:00 11.4 C 8.72 g/m*3 11.4 C 4.8 km/h
586 18-11-2020 00:45:00 11.4 C 8.72 g/m*3 11.4 C 3.2 km/h
587 18-11-2020 00:50:00 11.4 C 8.72 g/m*3 11.4 C 3.2 km/h
588 18-11-2020 00:55:00 11.4 C 8.72 g/m*3 11.4 C 1.6 km/h
589 18-11-2020 01:00:00 11.4 C 8.72 g/m*3 11.4 C 0 km/h
590 18-11-2020 01:05:00 11.4 C 8.72 g/m*3 11.4 C 0 km/h
591 18-11-2020 01:10:00 11.4 C 8.83 g/m*3 11.4 C 0 km/h
592 18-11-2020 01:15:00 11.4 C 8.83 g/m*3 11.4 C 0 km/h
593 18-11-2020 01:20:00 11.4 C 8.83 g/m*3 11.4 C 0 km/h
594 18-11-2020 01:25:00 11.4 C 8.83 g/m*3 11.4 C 0 km/h
595 18-11-2020 01:30:00 11.3 C 8.77 g/m*3 11.3 C 0 km/h
596 18-11-2020 01:35:00 11.3 C 8.77 g/m*3 11.3 C 0 km/h
597 18-11-2020 01:40:00 11.3 C 8.77 g/m*3 11.3 C 0 km/h
598 18-11-2020 01:45:00 11.3 C 8.77 g/m*3 11.3 C 0 km/h
599 18-11-2020 01:50:00 11.3 C 8.77 g/m*3 11.3 C 0 km/h
600 18-11-2020 01:55:00 11.3 C 8.77 g/m*3 11.3 C 0 km/h
Sensor: Nr:Datum:Temp:Abs-Feuchte:Windchill:Wind:
Aussen-T/F 601 18-11-2020 02:00:00 11.3 C 8.77 g/m*3 11.3 C 0 km/h
602 18-11-2020 02:05:00 11.3 C 8.77 g/m*3 11.3 C 6.4 km/h
603 18-11-2020 02:10:00 11.3 C 8.77 g/m*3 11.3 C 6.4 km/h
604 18-11-2020 02:15:00 11.3 C 8.77 g/m*3 11.3 C 4.8 km/h
605 18-11-2020 02:20:00 11.3 C 8.77 g/m*3 11.3 C 0 km/h
606 18-11-2020 02:25:00 11.3 C 8.77 g/m*3 11.3 C 0 km/h
607 18-11-2020 02:30:00 11.3 C 8.77 g/m*3 11.3 C 1.6 km/h
608 18-11-2020 02:35:00 11.3 C 8.77 g/m*3 11.3 C 3.2 km/h
609 18-11-2020 02:40:00 11.3 C 8.77 g/m*3 11.3 C 3.2 km/h
610 18-11-2020 02:45:00 11.3 C 8.77 g/m*3 11.3 C 3.2 km/h
611 18-11-2020 02:50:00 11.3 C 8.77 g/m*3 11.3 C 3.2 km/h
612 18-11-2020 02:55:00 11.3 C 8.77 g/m*3 11.3 C 0 km/h
613 18-11-2020 03:00:00 11.2 C 8.72 g/m*3 11.2 C 6.4 km/h
614 18-11-2020 03:05:00 11.2 C 8.72 g/m*3 11.2 C 1.6 km/h
615 18-11-2020 03:10:00 11.2 C 8.72 g/m*3 11.2 C 4.8 km/h
616 18-11-2020 03:15:00 11.2 C 8.72 g/m*3 11.2 C 0 km/h
617 18-11-2020 03:20:00 11.2 C 8.72 g/m*3 11.2 C 0 km/h
618 18-11-2020 03:25:00 11.2 C 8.72 g/m*3 11.2 C 0 km/h
619 18-11-2020 03:30:00 11.2 C 8.72 g/m*3 11.2 C 0 km/h
620 18-11-2020 03:35:00 11.2 C 8.82 g/m*3 11.2 C 0 km/h
621 18-11-2020 03:40:00 11.2 C 8.82 g/m*3 11.2 C 0 km/h
622 18-11-2020 03:45:00 11.1 C 8.76 g/m*3 11.1 C 0 km/h
623 18-11-2020 03:50:00 11.1 C 8.76 g/m*3 11.1 C 0 km/h
624 18-11-2020 03:55:00 11.1 C 8.76 g/m*3 11.1 C 4.8 km/h
625 18-11-2020 04:00:00 11 C 8.71 g/m*3 11 C 1.6 km/h
Sensor: Nr:Datum:Temp:Abs-Feuchte:Windchill:Wind:
Aussen-T/F 626 18-11-2020 04:05:00 11 C 8.71 g/m*3 11 C 1.6 km/h
627 18-11-2020 04:10:00 11 C 8.71 g/m*3 11 C 0 km/h
628 18-11-2020 04:15:00 11 C 8.71 g/m*3 11 C 0 km/h
629 18-11-2020 04:20:00 11 C 8.71 g/m*3 11 C 1.6 km/h
630 18-11-2020 04:25:00 11 C 8.71 g/m*3 11 C 0 km/h
631 18-11-2020 04:30:00 10.9 C 8.65 g/m*3 10.9 C 0 km/h
632 18-11-2020 04:35:00 10.9 C 8.65 g/m*3 10.9 C 0 km/h
633 18-11-2020 04:40:00 10.9 C 8.65 g/m*3 10.9 C 0 km/h
634 18-11-2020 04:45:00 10.9 C 8.65 g/m*3 10.9 C 0 km/h
635 18-11-2020 04:50:00 10.9 C 8.65 g/m*3 10.9 C 0 km/h
636 18-11-2020 04:55:00 10.9 C 8.65 g/m*3 10.9 C 0 km/h
637 18-11-2020 05:00:00 10.9 C 8.75 g/m*3 10.9 C 0 km/h
638 18-11-2020 05:05:00 10.8 C 8.6 g/m*3 10.8 C 3.2 km/h
639 18-11-2020 05:10:00 10.8 C 8.6 g/m*3 10.8 C 0 km/h
640 18-11-2020 05:15:00 10.8 C 8.6 g/m*3 10.8 C 0 km/h
641 18-11-2020 05:20:00 10.8 C 8.7 g/m*3 10.8 C 0 km/h
642 18-11-2020 05:25:00 10.8 C 8.7 g/m*3 10.8 C 0 km/h
643 18-11-2020 05:30:00 10.8 C 8.6 g/m*3 10.8 C 0 km/h
644 18-11-2020 05:35:00 10.8 C 8.6 g/m*3 10.8 C 0 km/h
645 18-11-2020 05:40:00 10.8 C 8.6 g/m*3 10.8 C 0 km/h
646 18-11-2020 05:45:00 10.8 C 8.7 g/m*3 10.8 C 0 km/h
647 18-11-2020 05:50:00 10.8 C 8.6 g/m*3 10.8 C 0 km/h
648 18-11-2020 05:55:00 10.7 C 8.55 g/m*3 10.7 C 0 km/h
649 18-11-2020 06:00:00 10.7 C 8.55 g/m*3 10.7 C 0 km/h
650 18-11-2020 06:05:00 10.7 C 8.64 g/m*3 10.7 C 0 km/h
Sensor: Nr:Datum:Temp:Abs-Feuchte:Windchill:Wind:
Aussen-T/F 651 18-11-2020 06:10:00 10.7 C 8.64 g/m*3 10.7 C 0 km/h
652 18-11-2020 06:15:00 10.7 C 8.64 g/m*3 10.7 C 0 km/h
653 18-11-2020 06:20:00 10.7 C 8.64 g/m*3 10.7 C 0 km/h
654 18-11-2020 06:25:00 10.7 C 8.64 g/m*3 10.7 C 0 km/h
655 18-11-2020 06:30:00 10.7 C 8.64 g/m*3 10.7 C 0 km/h
656 18-11-2020 06:35:00 10.7 C 8.64 g/m*3 10.7 C 1.6 km/h
657 18-11-2020 06:40:00 10.7 C 8.64 g/m*3 10.7 C 0 km/h
658 18-11-2020 06:45:00 10.7 C 8.64 g/m*3 10.7 C 0 km/h
659 18-11-2020 06:50:00 10.7 C 8.64 g/m*3 10.7 C 0 km/h
660 18-11-2020 06:55:00 10.7 C 8.64 g/m*3 10.7 C 0 km/h
661 18-11-2020 07:00:00 10.7 C 8.64 g/m*3 10.7 C 0 km/h
662 18-11-2020 07:05:00 10.7 C 8.64 g/m*3 10.7 C 0 km/h
663 18-11-2020 07:10:00 10.7 C 8.64 g/m*3 10.7 C 0 km/h
664 18-11-2020 07:15:00 10.7 C 8.64 g/m*3 10.7 C 0 km/h
665 18-11-2020 07:20:00 10.7 C 8.64 g/m*3 10.7 C 0 km/h
666 18-11-2020 07:25:00 10.7 C 8.64 g/m*3 10.7 C 0 km/h
667 18-11-2020 07:30:00 10.7 C 8.64 g/m*3 10.7 C 0 km/h
668 18-11-2020 07:35:00 10.7 C 8.64 g/m*3 10.7 C 0 km/h
669 18-11-2020 07:40:00 10.7 C 8.64 g/m*3 10.7 C 0 km/h
670 18-11-2020 07:45:00 10.7 C 8.74 g/m*3 10.7 C 0 km/h
671 18-11-2020 07:50:00 10.7 C 8.74 g/m*3 10.7 C 0 km/h
672 18-11-2020 07:55:00 10.7 C 8.74 g/m*3 10.7 C 0 km/h
673 18-11-2020 08:00:00 10.7 C 8.74 g/m*3 10.7 C 3.2 km/h
674 18-11-2020 08:05:00 10.7 C 8.64 g/m*3 10.7 C 4.8 km/h
675 18-11-2020 08:10:00 10.7 C 8.64 g/m*3 10.7 C 1.6 km/h
Sensor: Nr:Datum:Temp:Abs-Feuchte:Windchill:Wind:
Aussen-T/F 676 18-11-2020 08:15:00 10.8 C 8.7 g/m*3 10.8 C 1.6 km/h
677 18-11-2020 08:20:00 10.8 C 8.7 g/m*3 10.8 C 0 km/h
678 18-11-2020 08:25:00 10.8 C 8.6 g/m*3 10.8 C 0 km/h
679 18-11-2020 08:30:00 10.8 C 8.6 g/m*3 10.8 C 0 km/h
680 18-11-2020 08:35:00 10.8 C 8.6 g/m*3 10.8 C 3.2 km/h
681 18-11-2020 08:40:00 10.8 C 8.6 g/m*3 10.8 C 4.8 km/h
682 18-11-2020 08:45:00 10.8 C 8.6 g/m*3 10.8 C 3.2 km/h
683 18-11-2020 08:50:00 10.8 C 8.5 g/m*3 10.29 C 6.4 km/h
684 18-11-2020 08:55:00 10.8 C 8.6 g/m*3 10.8 C 3.2 km/h
685 18-11-2020 09:00:00 10.8 C 8.6 g/m*3 10.29 C 6.4 km/h
686 18-11-2020 09:05:00 10.8 C 8.5 g/m*3 10.8 C 4.8 km/h
687 18-11-2020 09:10:00 10.8 C 8.6 g/m*3 10.8 C 0 km/h
688 18-11-2020 09:15:00 10.8 C 8.6 g/m*3 10.8 C 0 km/h
689 18-11-2020 09:20:00 10.8 C 8.6 g/m*3 10.8 C 0 km/h
690 18-11-2020 09:25:00 10.8 C 8.5 g/m*3 10.8 C 1.6 km/h
691 18-11-2020 09:30:00 10.8 C 8.6 g/m*3 10.8 C 0 km/h
692 18-11-2020 09:35:00 10.7 C 8.45 g/m*3 10.7 C 1.6 km/h
693 18-11-2020 09:40:00 10.5 C 8.34 g/m*3 10.5 C 0 km/h
694 18-11-2020 09:45:00 10.3 C 8.33 g/m*3 10.3 C 0 km/h
695 18-11-2020 09:50:00 10.1 C 8.23 g/m*3 10.1 C 0 km/h
696 18-11-2020 09:55:00 10 C 8.17 g/m*3 10 C 0 km/h
697 18-11-2020 10:00:00 9.8 C 8.16 g/m*3 9.8 C 0 km/h
698 18-11-2020 10:05:00 9.7 C 8.11 g/m*3 9.7 C 0 km/h
699 18-11-2020 10:10:00 9.6 C 8.06 g/m*3 9.6 C 0 km/h
700 18-11-2020 10:15:00 9.5 C 8.1 g/m*3 9.5 C 3.2 km/h
Sensor: Nr:Datum:Temp:Abs-Feuchte:Windchill:Wind:
Aussen-T/F 701 18-11-2020 10:20:00 9.4 C 8.05 g/m*3 9.4 C 1.6 km/h
702 18-11-2020 10:25:00 9.4 C 8.14 g/m*3 9.4 C 4.8 km/h
703 18-11-2020 10:30:00 9.3 C 8.09 g/m*3 9.3 C 3.2 km/h
704 18-11-2020 10:35:00 9.3 C 8.09 g/m*3 9.3 C 1.6 km/h
705 18-11-2020 10:40:00 9.3 C 8.18 g/m*3 9.3 C 3.2 km/h
706 18-11-2020 10:45:00 9.3 C 8.18 g/m*3 9.3 C 1.6 km/h
707 18-11-2020 10:50:00 9.3 C 8.18 g/m*3 9.3 C 3.2 km/h
708 18-11-2020 10:55:00 9.3 C 8.27 g/m*3 9.3 C 3.2 km/h
709 18-11-2020 11:00:00 9.3 C 8.27 g/m*3 9.3 C 4.8 km/h
710 18-11-2020 11:05:00 9.4 C 8.32 g/m*3 9.4 C 3.2 km/h
711 18-11-2020 11:10:00 9.4 C 8.32 g/m*3 9.4 C 1.6 km/h
712 18-11-2020 11:15:00 9.5 C 8.37 g/m*3 9.5 C 4.8 km/h
713 18-11-2020 11:20:00 9.6 C 8.43 g/m*3 9.6 C 3.2 km/h
714 18-11-2020 11:25:00 9.6 C 8.52 g/m*3 9.6 C 3.2 km/h
715 18-11-2020 11:30:00 9.6 C 8.52 g/m*3 9.6 C 4.8 km/h
716 18-11-2020 11:35:00 9.7 C 8.57 g/m*3 9.7 C 3.2 km/h
717 18-11-2020 11:40:00 9.7 C 8.57 g/m*3 9.7 C 4.8 km/h
718 18-11-2020 11:45:00 9.7 C 8.57 g/m*3 9.7 C 4.8 km/h
719 18-11-2020 11:50:00 9.8 C 8.63 g/m*3 9.8 C 4.8 km/h
720 18-11-2020 11:55:00 9.9 C 8.68 g/m*3 9.9 C 4.8 km/h
721 18-11-2020 12:00:00 9.9 C 8.68 g/m*3 9.9 C 4.8 km/h
722 18-11-2020 12:05:00 10 C 8.74 g/m*3 10 C 1.6 km/h
723 18-11-2020 12:10:00 10.1 C 8.7 g/m*3 10.1 C 4.8 km/h
724 18-11-2020 12:15:00 10.2 C 8.76 g/m*3 10.2 C 4.8 km/h
725 18-11-2020 12:20:00 10.2 C 8.76 g/m*3 9.6 C 6.4 km/h
Sensor: Nr:Datum:Temp:Abs-Feuchte:Windchill:Wind:
Aussen-T/F 726 18-11-2020 12:25:00 10.3 C 8.81 g/m*3 10.3 C 4.8 km/h
727 18-11-2020 12:30:00 10.3 C 8.81 g/m*3 9.72 C 6.4 km/h
728 18-11-2020 12:35:00 10.4 C 8.87 g/m*3 10.4 C 0 km/h
729 18-11-2020 12:40:00 10.6 C 8.98 g/m*3 10.6 C 0 km/h
730 18-11-2020 12:45:00 10.7 C 8.94 g/m*3 10.7 C 0 km/h
731 18-11-2020 12:50:00 10.7 C 8.94 g/m*3 10.7 C 0 km/h
732 18-11-2020 12:55:00 10.8 C 8.99 g/m*3 10.8 C 0 km/h
733 18-11-2020 13:00:00 10.8 C 8.99 g/m*3 10.8 C 0 km/h
734 18-11-2020 13:05:00 10.8 C 8.99 g/m*3 10.8 C 0 km/h
735 18-11-2020 13:10:00 10.8 C 8.99 g/m*3 10.8 C 0 km/h
736 18-11-2020 13:15:00 10.9 C 9.05 g/m*3 10.9 C 0 km/h
737 18-11-2020 13:20:00 10.9 C 9.05 g/m*3 10.9 C 0 km/h
738 18-11-2020 13:25:00 10.9 C 9.05 g/m*3 10.9 C 0 km/h
739 18-11-2020 13:30:00 11 C 9.11 g/m*3 11 C 0 km/h
740 18-11-2020 13:35:00 11 C 9.11 g/m*3 11 C 0 km/h
741 18-11-2020 13:40:00 11.1 C 9.17 g/m*3 11.1 C 0 km/h
742 18-11-2020 13:45:00 11.1 C 9.17 g/m*3 11.1 C 0 km/h
743 18-11-2020 13:50:00 11.2 C 9.22 g/m*3 11.2 C 0 km/h
744 18-11-2020 13:55:00 11.2 C 9.22 g/m*3 11.2 C 0 km/h
745 18-11-2020 14:00:00 11.2 C 9.22 g/m*3 11.2 C 0 km/h
746 18-11-2020 14:05:00 11.3 C 9.28 g/m*3 11.3 C 0 km/h
747 18-11-2020 14:10:00 11.3 C 9.18 g/m*3 11.3 C 0 km/h
748 18-11-2020 14:15:00 11.3 C 9.18 g/m*3 11.3 C 0 km/h
749 18-11-2020 14:20:00 11.4 C 9.34 g/m*3 11.4 C 0 km/h
750 18-11-2020 14:25:00 11.4 C 9.24 g/m*3 11.4 C 0 km/h
Sensor: Nr:Datum:Temp:Abs-Feuchte:Windchill:Wind:
Aussen-T/F 751 18-11-2020 14:30:00 11.5 C 9.3 g/m*3 11.5 C 3.2 km/h
752 18-11-2020 14:35:00 11.6 C 9.35 g/m*3 11.6 C 4.8 km/h
753 18-11-2020 14:40:00 11.7 C 9.31 g/m*3 11.7 C 4.8 km/h
754 18-11-2020 14:45:00 11.8 C 9.37 g/m*3 11.8 C 3.2 km/h
755 18-11-2020 14:50:00 11.9 C 9.43 g/m*3 11.9 C 3.2 km/h
756 18-11-2020 14:55:00 12.1 C 9.44 g/m*3 12.1 C 6.4 km/h
757 18-11-2020 15:00:00 12.1 C 9.44 g/m*3 12.1 C 4.8 km/h
758 18-11-2020 15:05:00 12.2 C 9.5 g/m*3 12.2 C 4.8 km/h
759 18-11-2020 15:10:00 12.2 C 9.5 g/m*3 12.2 C 4.8 km/h
760 18-11-2020 15:15:00 12.3 C 9.56 g/m*3 12.3 C 3.2 km/h
761 18-11-2020 15:20:00 12.2 C 9.39 g/m*3 12.2 C 0 km/h
762 18-11-2020 15:25:00 12.2 C 9.5 g/m*3 12.2 C 6.4 km/h
763 18-11-2020 15:30:00 12.2 C 9.39 g/m*3 12.2 C 4.8 km/h
764 18-11-2020 15:35:00 12.2 C 9.5 g/m*3 12.2 C 3.2 km/h
765 18-11-2020 15:40:00 12.2 C 9.39 g/m*3 12.2 C 4.8 km/h
766 18-11-2020 15:45:00 12.1 C 9.33 g/m*3 12.1 C 4.8 km/h
767 18-11-2020 15:50:00 12 C 9.27 g/m*3 12 C 4.8 km/h
768 18-11-2020 15:55:00 11.9 C 9.32 g/m*3 11.9 C 6.4 km/h
769 18-11-2020 16:00:00 11.8 C 9.26 g/m*3 11.8 C 6.4 km/h
770 18-11-2020 16:05:00 11.8 C 9.26 g/m*3 11.8 C 6.4 km/h
771 18-11-2020 16:10:00 11.7 C 9.2 g/m*3 11.7 C 6.4 km/h
772 18-11-2020 16:15:00 11.6 C 9.15 g/m*3 11.6 C 6.4 km/h
773 18-11-2020 16:20:00 11.4 C 9.03 g/m*3 11.4 C 6.4 km/h
774 18-11-2020 16:25:00 11.3 C 8.98 g/m*3 11.3 C 6.4 km/h
775 18-11-2020 16:30:00 11.2 C 8.92 g/m*3 11.2 C 4.8 km/h
Sensor: Nr:Datum:Temp:Abs-Feuchte:Windchill:Wind:
Aussen-T/F 776 18-11-2020 16:35:00 11.1 C 8.86 g/m*3 11.1 C 6.4 km/h
777 18-11-2020 16:40:00 10.9 C 8.75 g/m*3 10.9 C 3.2 km/h
778 18-11-2020 16:45:00 10.8 C 8.7 g/m*3 10.8 C 1.6 km/h
779 18-11-2020 16:50:00 10.7 C 8.74 g/m*3 10.7 C 3.2 km/h
780 18-11-2020 16:55:00 10.5 C 8.53 g/m*3 10.5 C 3.2 km/h
781 18-11-2020 17:00:00 10.3 C 8.52 g/m*3 10.3 C 0 km/h
782 18-11-2020 17:05:00 10.2 C 8.47 g/m*3 10.2 C 4.8 km/h
783 18-11-2020 17:10:00 10 C 8.36 g/m*3 10 C 3.2 km/h
784 18-11-2020 17:15:00 9.8 C 8.26 g/m*3 9.8 C 3.2 km/h
785 18-11-2020 17:20:00 9.7 C 8.3 g/m*3 9.7 C 4.8 km/h
786 18-11-2020 17:25:00 9.6 C 8.24 g/m*3 9.6 C 3.2 km/h
787 18-11-2020 17:30:00 9.5 C 8.19 g/m*3 9.5 C 4.8 km/h
788 18-11-2020 17:35:00 9.4 C 8.14 g/m*3 9.4 C 4.8 km/h
789 18-11-2020 17:40:00 9.3 C 8.18 g/m*3 9.3 C 3.2 km/h
790 18-11-2020 17:45:00 9.2 C 8.13 g/m*3 8.45 C 6.4 km/h
791 18-11-2020 17:50:00 9.2 C 8.13 g/m*3 9.2 C 3.2 km/h
792 18-11-2020 17:55:00 9.1 C 8.07 g/m*3 9.1 C 4.8 km/h
793 18-11-2020 18:00:00 9 C 8.11 g/m*3 9 C 3.2 km/h
794 18-11-2020 18:05:00 8.9 C 8.06 g/m*3 8.9 C 4.8 km/h
795 18-11-2020 18:10:00 8.8 C 8.01 g/m*3 8.8 C 3.2 km/h
796 18-11-2020 18:15:00 8.8 C 8.01 g/m*3 8.8 C 3.2 km/h
797 18-11-2020 18:20:00 8.7 C 7.96 g/m*3 7.87 C 6.4 km/h
798 18-11-2020 18:25:00 8.7 C 7.96 g/m*3 7.87 C 6.4 km/h
799 18-11-2020 18:30:00 8.7 C 7.96 g/m*3 8.7 C 3.2 km/h
800 18-11-2020 18:35:00 8.6 C 7.91 g/m*3 8.6 C 4.8 km/h
Sensor: Nr:Datum:Temp:Abs-Feuchte:Windchill:Wind:
Aussen-T/F 801 18-11-2020 18:40:00 8.5 C 7.85 g/m*3 8.5 C 4.8 km/h
802 18-11-2020 18:45:00 8.4 C 7.8 g/m*3 8.4 C 4.8 km/h
803 18-11-2020 18:50:00 8.3 C 7.75 g/m*3 8.3 C 4.8 km/h
804 18-11-2020 18:55:00 8.3 C 7.84 g/m*3 7.41 C 6.4 km/h
805 18-11-2020 19:00:00 8.3 C 7.84 g/m*3 8.3 C 3.2 km/h
806 18-11-2020 19:05:00 8.2 C 7.7 g/m*3 8.2 C 3.2 km/h
807 18-11-2020 19:10:00 8.1 C 7.74 g/m*3 7.17 C 6.4 km/h
808 18-11-2020 19:15:00 8 C 7.69 g/m*3 8 C 3.2 km/h
809 18-11-2020 19:20:00 8.1 C 7.74 g/m*3 8.1 C 4.8 km/h
810 18-11-2020 19:25:00 8.1 C 7.82 g/m*3 8.1 C 4.8 km/h
811 18-11-2020 19:30:00 8.1 C 7.74 g/m*3 8.1 C 3.2 km/h
812 18-11-2020 19:35:00 7.9 C 7.64 g/m*3 7.9 C 1.6 km/h
813 18-11-2020 19:40:00 7.9 C 7.64 g/m*3 7.9 C 3.2 km/h
814 18-11-2020 19:45:00 7.9 C 7.64 g/m*3 7.9 C 0 km/h
815 18-11-2020 19:50:00 7.8 C 7.59 g/m*3 7.8 C 0 km/h
816 18-11-2020 19:55:00 7.7 C 7.54 g/m*3 7.7 C 0 km/h
817 18-11-2020 20:00:00 7.6 C 7.49 g/m*3 7.6 C 1.6 km/h
818 18-11-2020 20:05:00 7.6 C 7.57 g/m*3 7.6 C 0 km/h
819 18-11-2020 20:10:00 7.6 C 7.57 g/m*3 7.6 C 3.2 km/h
820 18-11-2020 20:15:00 7.5 C 7.44 g/m*3 7.5 C 0 km/h
821 18-11-2020 20:20:00 7.4 C 7.4 g/m*3 7.4 C 0 km/h
822 18-11-2020 20:25:00 7.3 C 7.35 g/m*3 7.3 C 0 km/h
823 18-11-2020 20:30:00 7.3 C 7.35 g/m*3 7.3 C 0 km/h
824 18-11-2020 20:35:00 7.2 C 7.3 g/m*3 7.2 C 0 km/h
825 18-11-2020 20:40:00 7.1 C 7.25 g/m*3 7.1 C 0 km/h
Sensor: Nr:Datum:Temp:Abs-Feuchte:Windchill:Wind:
Aussen-T/F 826 18-11-2020 20:45:00 7.1 C 7.25 g/m*3 7.1 C 0 km/h
827 18-11-2020 20:50:00 7 C 7.28 g/m*3 7 C 0 km/h
828 18-11-2020 20:55:00 6.9 C 7.24 g/m*3 6.9 C 0 km/h
829 18-11-2020 21:00:00 6.9 C 7.24 g/m*3 6.9 C 1.6 km/h
830 18-11-2020 21:05:00 6.8 C 7.19 g/m*3 6.8 C 0 km/h
831 18-11-2020 21:10:00 6.8 C 7.19 g/m*3 6.8 C 0 km/h
832 18-11-2020 21:15:00 6.7 C 7.14 g/m*3 6.7 C 0 km/h
833 18-11-2020 21:20:00 6.7 C 7.14 g/m*3 6.7 C 0 km/h
834 18-11-2020 21:25:00 6.7 C 7.14 g/m*3 6.7 C 0 km/h
835 18-11-2020 21:30:00 6.7 C 7.14 g/m*3 6.7 C 0 km/h
836 18-11-2020 21:35:00 6.6 C 7.1 g/m*3 6.6 C 0 km/h
837 18-11-2020 21:40:00 6.6 C 7.1 g/m*3 6.6 C 0 km/h
838 18-11-2020 21:45:00 6.5 C 7.05 g/m*3 6.5 C 1.6 km/h
839 18-11-2020 21:50:00 6.5 C 7.05 g/m*3 6.5 C 3.2 km/h
840 18-11-2020 21:55:00 6.5 C 7.12 g/m*3 6.5 C 1.6 km/h
841 18-11-2020 22:00:00 6.6 C 7.17 g/m*3 6.6 C 1.6 km/h
842 18-11-2020 22:05:00 6.5 C 7.12 g/m*3 6.5 C 0 km/h
843 18-11-2020 22:10:00 6.5 C 7.12 g/m*3 6.5 C 0 km/h
844 18-11-2020 22:15:00 6.4 C 7 g/m*3 6.4 C 1.6 km/h
845 18-11-2020 22:20:00 6.4 C 7 g/m*3 6.4 C 1.6 km/h
846 18-11-2020 22:25:00 6.3 C 6.96 g/m*3 6.3 C 0 km/h
847 18-11-2020 22:30:00 6.3 C 6.96 g/m*3 6.3 C 0 km/h
848 18-11-2020 22:35:00 6.3 C 7.03 g/m*3 6.3 C 0 km/h
849 18-11-2020 22:40:00 6.3 C 7.03 g/m*3 6.3 C 0 km/h
850 18-11-2020 22:45:00 6.3 C 7.03 g/m*3 6.3 C 0 km/h
Sensor: Nr:Datum:Temp:Abs-Feuchte:Windchill:Wind:
Aussen-T/F 851 18-11-2020 22:50:00 6.2 C 6.99 g/m*3 6.2 C 0 km/h
852 18-11-2020 22:55:00 6.1 C 6.87 g/m*3 6.1 C 0 km/h
853 18-11-2020 23:00:00 6.1 C 6.94 g/m*3 6.1 C 0 km/h
854 18-11-2020 23:05:00 6.1 C 6.94 g/m*3 6.1 C 0 km/h
855 18-11-2020 23:10:00 6 C 6.9 g/m*3 6 C 0 km/h
856 18-11-2020 23:15:00 5.9 C 6.85 g/m*3 5.9 C 0 km/h
857 18-11-2020 23:20:00 6 C 6.9 g/m*3 6 C 0 km/h
858 18-11-2020 23:25:00 6 C 6.9 g/m*3 6 C 0 km/h
859 18-11-2020 23:30:00 6.1 C 6.94 g/m*3 6.1 C 0 km/h
860 18-11-2020 23:35:00 6 C 6.9 g/m*3 6 C 0 km/h
861 18-11-2020 23:40:00 6 C 6.9 g/m*3 6 C 0 km/h
862 18-11-2020 23:45:00 6 C 6.9 g/m*3 6 C 0 km/h
863 18-11-2020 23:50:00 6 C 6.9 g/m*3 6 C 3.2 km/h
864 18-11-2020 23:55:00 5.9 C 6.85 g/m*3 5.9 C 0 km/h

Legende:
   Min
   Max


Maximal/Minimal-Werte vom 16.11.2020 - 18.11.2020

Sensor Min Max Avg
Temp
(Aussen-T/F)
5.9 °C
18-11-2020  23:15:00
13.2 °C
17-11-2020  14:15:00
10.73 °C
Abs-Feuchte
(Aussen-T/F)
6.85 g/m*3
18-11-2020  23:15:00
9.56 g/m*3
18-11-2020  15:15:00
8.55 g/m*3
Windchill
(Aussen-T/F)
5.9 C
18-11-2020  23:15:00
13.2 C
17-11-2020  14:15:00
10.36 C

Die Daten stammen von einer Davis Vantage Pro 2 Wetter-Station und werden unter Linux mit der Software wview2wettercgi und aufbereitet. Alle Angaben erfolgen ohne Gewähr für ihre Vollständigkeit oder Richtigkeit.
Kontakt: Rainer Krienke krienke@uni-koblenz.de . Meine Webseiten an der Uni Koblenz oder privat.
Version: $Revision: 0.78 $